sensor_id;sensor_type;location;lat;lon;timestamp;pressure;altitude;pressure_sealevel;temperature;humidity
21803;BME280;18591;47.080;22.214;2022-09-03T00:01:49;99537.84;;;19.46;72.24
21803;BME280;18591;47.080;22.214;2022-09-03T00:04:11;99538.94;;;19.43;71.90
21803;BME280;18591;47.080;22.214;2022-09-03T00:06:35;99539.47;;;19.48;71.91
21803;BME280;18591;47.080;22.214;2022-09-03T00:13:24;99544.38;;;19.43;72.20
21803;BME280;18591;47.080;22.214;2022-09-03T00:15:54;99541.66;;;19.43;72.16
21803;BME280;18591;47.080;22.214;2022-09-03T00:18:06;99545.00;;;19.47;71.90
21803;BME280;18591;47.080;22.214;2022-09-03T00:20:19;99539.56;;;19.47;71.72
21803;BME280;18591;47.080;22.214;2022-09-03T00:22:28;99541.19;;;19.49;71.63
21803;BME280;18591;47.080;22.214;2022-09-03T00:24:35;99533.66;;;19.53;71.62
21803;BME280;18591;47.080;22.214;2022-09-03T00:26:43;99542.09;;;19.50;71.75
21803;BME280;18591;47.080;22.214;2022-09-03T00:29:02;99535.97;;;19.46;71.63
21803;BME280;18591;47.080;22.214;2022-09-03T00:31:15;99538.84;;;19.45;71.58
21803;BME280;18591;47.080;22.214;2022-09-03T00:33:28;99528.66;;;19.47;71.60
21803;BME280;18591;47.080;22.214;2022-09-03T00:37:36;99536.97;;;19.45;71.73
21803;BME280;18591;47.080;22.214;2022-09-03T00:39:39;99536.97;;;19.45;71.37
21803;BME280;18591;47.080;22.214;2022-09-03T00:47:11;99546.00;;;19.46;71.17
21803;BME280;18591;47.080;22.214;2022-09-03T00:51:42;99552.22;;;19.48;71.30
21803;BME280;18591;47.080;22.214;2022-09-03T00:54:01;99550.59;;;19.45;71.54
21803;BME280;18591;47.080;22.214;2022-09-03T00:58:50;99553.41;;;19.44;71.61
21803;BME280;18591;47.080;22.214;2022-09-03T01:00:56;99553.84;;;19.50;71.48
21803;BME280;18591;47.080;22.214;2022-09-03T01:12:54;99555.91;;;19.47;71.55
21803;BME280;18591;47.080;22.214;2022-09-03T01:15:07;99556.03;;;19.45;71.66
21803;BME280;18591;47.080;22.214;2022-09-03T01:22:31;99564.44;;;19.42;71.81
21803;BME280;18591;47.080;22.214;2022-09-03T01:25:05;99567.16;;;19.42;71.77
21803;BME280;18591;47.080;22.214;2022-09-03T01:37:02;99577.31;;;19.40;71.81
21803;BME280;18591;47.080;22.214;2022-09-03T01:39:15;99571.84;;;19.40;72.18
21803;BME280;18591;47.080;22.214;2022-09-03T01:41:36;99571.53;;;19.45;71.64
21803;BME280;18591;47.080;22.214;2022-09-03T01:46:22;99577.84;;;19.45;71.73
21803;BME280;18591;47.080;22.214;2022-09-03T01:49:05;99580.25;;;19.37;72.06
21803;BME280;18591;47.080;22.214;2022-09-03T01:51:20;99579.25;;;19.38;71.77
21803;BME280;18591;47.080;22.214;2022-09-03T02:01:00;99581.88;;;19.40;72.05
21803;BME280;18591;47.080;22.214;2022-09-03T02:03:06;99577.41;;;19.39;72.17
21803;BME280;18591;47.080;22.214;2022-09-03T02:07:21;99580.91;;;19.41;72.14
21803;BME280;18591;47.080;22.214;2022-09-03T02:09:25;99584.47;;;19.41;71.80
21803;BME280;18591;47.080;22.214;2022-09-03T02:11:36;99585.47;;;19.40;71.98
21803;BME280;18591;47.080;22.214;2022-09-03T02:13:45;99588.06;;;19.42;72.32
21803;BME280;18591;47.080;22.214;2022-09-03T02:15:52;99596.03;;;19.45;72.08
21803;BME280;18591;47.080;22.214;2022-09-03T02:18:00;99590.06;;;19.40;72.00
21803;BME280;18591;47.080;22.214;2022-09-03T02:20:07;99594.28;;;19.44;71.55
21803;BME280;18591;47.080;22.214;2022-09-03T02:22:11;99593.09;;;19.48;71.57
21803;BME280;18591;47.080;22.214;2022-09-03T02:24:13;99583.03;;;19.48;71.34
21803;BME280;18591;47.080;22.214;2022-09-03T02:26:20;99594.06;;;19.47;71.71
21803;BME280;18591;47.080;22.214;2022-09-03T02:28:24;99594.94;;;19.47;71.78
21803;BME280;18591;47.080;22.214;2022-09-03T02:30:26;99598.63;;;19.46;71.92
21803;BME280;18591;47.080;22.214;2022-09-03T02:32:29;99592.84;;;19.51;71.43
21803;BME280;18591;47.080;22.214;2022-09-03T02:34:31;99597.31;;;19.52;72.02
21803;BME280;18591;47.080;22.214;2022-09-03T02:36:40;99592.84;;;19.51;71.64
21803;BME280;18591;47.080;22.214;2022-09-03T02:38:43;99603.66;;;19.52;71.59
21803;BME280;18591;47.080;22.214;2022-09-03T02:40:46;99601.03;;;19.51;71.63
21803;BME280;18591;47.080;22.214;2022-09-03T02:42:49;99602.34;;;19.45;71.61
21803;BME280;18591;47.080;22.214;2022-09-03T02:44:58;99606.41;;;19.40;72.11
21803;BME280;18591;47.080;22.214;2022-09-03T02:47:04;99610.53;;;19.45;71.89
21803;BME280;18591;47.080;22.214;2022-09-03T02:49:07;99617.72;;;19.46;71.82
21803;BME280;18591;47.080;22.214;2022-09-03T02:51:09;99613.25;;;19.45;71.63
21803;BME280;18591;47.080;22.214;2022-09-03T02:53:15;99606.81;;;19.46;71.73
21803;BME280;18591;47.080;22.214;2022-09-03T02:55:18;99604.94;;;19.47;71.89
21803;BME280;18591;47.080;22.214;2022-09-03T02:57:20;99605.59;;;19.50;71.76
21803;BME280;18591;47.080;22.214;2022-09-03T02:59:28;99615.84;;;19.47;71.99
21803;BME280;18591;47.080;22.214;2022-09-03T03:01:31;99615.13;;;19.45;72.02
21803;BME280;18591;47.080;22.214;2022-09-03T03:03:34;99614.97;;;19.46;72.06
21803;BME280;18591;47.080;22.214;2022-09-03T03:05:43;99615.31;;;19.42;71.93
21803;BME280;18591;47.080;22.214;2022-09-03T03:07:46;99612.38;;;19.45;71.88
21803;BME280;18591;47.080;22.214;2022-09-03T03:09:48;99619.56;;;19.46;71.57
21803;BME280;18591;47.080;22.214;2022-09-03T03:11:51;99622.63;;;19.41;71.79
21803;BME280;18591;47.080;22.214;2022-09-03T03:13:54;99625.25;;;19.43;71.48
21803;BME280;18591;47.080;22.214;2022-09-03T03:16:01;99626.44;;;19.39;71.98
21803;BME280;18591;47.080;22.214;2022-09-03T03:18:04;99622.84;;;19.38;72.16
21803;BME280;18591;47.080;22.214;2022-09-03T03:20:07;99624.81;;;19.36;71.79
21803;BME280;18591;47.080;22.214;2022-09-03T03:22:09;99619.25;;;19.38;72.13
21803;BME280;18591;47.080;22.214;2022-09-03T03:24:11;99621.13;;;19.37;71.83
21803;BME280;18591;47.080;22.214;2022-09-03T03:26:15;99614.25;;;19.31;72.28
21803;BME280;18591;47.080;22.214;2022-09-03T03:28:20;99618.84;;;19.31;72.29
21803;BME280;18591;47.080;22.214;2022-09-03T03:30:22;99623.41;;;19.30;72.15
21803;BME280;18591;47.080;22.214;2022-09-03T03:32:25;99622.41;;;19.31;72.12
21803;BME280;18591;47.080;22.214;2022-09-03T03:34:27;99626.03;;;19.32;71.86
21803;BME280;18591;47.080;22.214;2022-09-03T03:36:31;99628.41;;;19.36;71.61
21803;BME280;18591;47.080;22.214;2022-09-03T03:38:35;99632.97;;;19.36;71.74
21803;BME280;18591;47.080;22.214;2022-09-03T03:40:38;99625.69;;;19.36;71.98
21803;BME280;18591;47.080;22.214;2022-09-03T03:42:40;99630.25;;;19.36;72.05
21803;BME280;18591;47.080;22.214;2022-09-03T03:44:42;99624.72;;;19.38;71.65
21803;BME280;18591;47.080;22.214;2022-09-03T03:46:44;99629.28;;;19.37;71.83
21803;BME280;18591;47.080;22.214;2022-09-03T03:48:48;99637.47;;;19.37;71.71
21803;BME280;18591;47.080;22.214;2022-09-03T03:50:51;99630.16;;;19.38;71.81
21803;BME280;18591;47.080;22.214;2022-09-03T03:52:53;99626.78;;;19.34;71.88
21803;BME280;18591;47.080;22.214;2022-09-03T03:54:55;99627.78;;;19.33;71.87
21803;BME280;18591;47.080;22.214;2022-09-03T03:56:57;99634.06;;;19.33;71.90
21803;BME280;18591;47.080;22.214;2022-09-03T03:58:59;99638.66;;;19.33;71.96
21803;BME280;18591;47.080;22.214;2022-09-03T04:01:06;99625.16;;;19.31;72.05
21803;BME280;18591;47.080;22.214;2022-09-03T04:03:08;99631.25;;;19.35;71.83
21803;BME280;18591;47.080;22.214;2022-09-03T04:05:10;99630.25;;;19.36;71.67
21803;BME280;18591;47.080;22.214;2022-09-03T04:07:12;99634.75;;;19.37;71.64
21803;BME280;18591;47.080;22.214;2022-09-03T04:09:14;99629.06;;;19.40;71.48
21803;BME280;18591;47.080;22.214;2022-09-03T04:11:19;99633.13;;;19.34;71.39
21803;BME280;18591;47.080;22.214;2022-09-03T04:13:21;99627.53;;;19.36;71.29
21803;BME280;18591;47.080;22.214;2022-09-03T04:15:31;99627.88;;;19.31;71.39
21803;BME280;18591;47.080;22.214;2022-09-03T04:17:33;99629.50;;;19.34;71.33
21803;BME280;18591;47.080;22.214;2022-09-03T04:19:36;99634.41;;;19.29;71.76
21803;BME280;18591;47.080;22.214;2022-09-03T04:21:39;99631.06;;;19.25;71.77
21803;BME280;18591;47.080;22.214;2022-09-03T04:23:44;99630.94;;;19.27;71.68
21803;BME280;18591;47.080;22.214;2022-09-03T04:25:51;99632.03;;;19.24;71.91
21803;BME280;18591;47.080;22.214;2022-09-03T04:27:54;99630.06;;;19.26;72.01
21803;BME280;18591;47.080;22.214;2022-09-03T04:29:57;99631.91;;;19.26;71.67
21803;BME280;18591;47.080;22.214;2022-09-03T04:31:59;99636.59;;;19.24;71.78
21803;BME280;18591;47.080;22.214;2022-09-03T04:34:37;99636.72;;;19.22;71.90
21803;BME280;18591;47.080;22.214;2022-09-03T04:36:39;99638.91;;;19.17;72.19
21803;BME280;18591;47.080;22.214;2022-09-03T04:38:45;99641.41;;;19.20;71.85
21803;BME280;18591;47.080;22.214;2022-09-03T04:40:53;99637.81;;;19.20;71.91
21803;BME280;18591;47.080;22.214;2022-09-03T04:42:58;99637.81;;;19.20;71.71
21803;BME280;18591;47.080;22.214;2022-09-03T04:45:01;99639.69;;;19.19;71.83
21803;BME280;18591;47.080;22.214;2022-09-03T04:47:04;99645.00;;;19.21;71.68
21803;BME280;18591;47.080;22.214;2022-09-03T04:49:06;99648.03;;;19.16;72.14
21803;BME280;18591;47.080;22.214;2022-09-03T04:51:12;99645.00;;;19.21;71.74
21803;BME280;18591;47.080;22.214;2022-09-03T04:53:16;99652.06;;;19.23;71.58
21803;BME280;18591;47.080;22.214;2022-09-03T04:55:18;99651.22;;;19.23;71.61
21803;BME280;18591;47.080;22.214;2022-09-03T04:57:20;99650.34;;;19.22;71.64
21803;BME280;18591;47.080;22.214;2022-09-03T04:59:23;99662.19;;;19.21;71.72
21803;BME280;18591;47.080;22.214;2022-09-03T05:01:28;99664.59;;;19.26;71.63
21803;BME280;18591;47.080;22.214;2022-09-03T05:03:30;99668.19;;;19.26;71.61
21803;BME280;18591;47.080;22.214;2022-09-03T05:05:35;99662.88;;;19.25;71.77
21803;BME280;18591;47.080;22.214;2022-09-03T05:07:37;99672.91;;;19.24;71.86
21803;BME280;18591;47.080;22.214;2022-09-03T05:09:40;99673.00;;;19.23;71.90
21803;BME280;18591;47.080;22.214;2022-09-03T05:11:42;99668.63;;;19.20;71.84
21803;BME280;18591;47.080;22.214;2022-09-03T05:13:48;99664.38;;;19.16;72.12
21803;BME280;18591;47.080;22.214;2022-09-03T05:15:58;99668.88;;;19.17;72.42
21803;BME280;18591;47.080;22.214;2022-09-03T05:18:02;99664.81;;;19.23;72.17
21803;BME280;18591;47.080;22.214;2022-09-03T05:20:05;99662.19;;;19.21;72.15
21803;BME280;18591;47.080;22.214;2022-09-03T05:22:11;99673.09;;;19.21;72.10
21803;BME280;18591;47.080;22.214;2022-09-03T05:24:16;99670.91;;;19.26;71.87
21803;BME280;18591;47.080;22.214;2022-09-03T05:26:24;99674.84;;;19.22;72.16
21803;BME280;18591;47.080;22.214;2022-09-03T05:28:29;99670.03;;;19.26;72.14
21803;BME280;18591;47.080;22.214;2022-09-03T05:30:31;99674.41;;;19.28;72.01
21803;BME280;18591;47.080;22.214;2022-09-03T05:32:34;99670.81;;;19.28;72.20
21803;BME280;18591;47.080;22.214;2022-09-03T05:34:36;99672.34;;;19.32;71.85
21803;BME280;18591;47.080;22.214;2022-09-03T05:36:38;99676.16;;;19.29;72.09
21803;BME280;18591;47.080;22.214;2022-09-03T05:38:41;99673.75;;;19.38;71.85
21803;BME280;18591;47.080;22.214;2022-09-03T05:40:44;99674.63;;;19.38;71.78
21803;BME280;18591;47.080;22.214;2022-09-03T05:42:47;99678.34;;;19.37;71.76
21803;BME280;18591;47.080;22.214;2022-09-03T05:44:50;99678.34;;;19.37;71.79
21803;BME280;18591;47.080;22.214;2022-09-03T05:46:53;99679.19;;;19.38;71.60
21803;BME280;18591;47.080;22.214;2022-09-03T05:48:57;99683.00;;;19.35;71.92
21803;BME280;18591;47.080;22.214;2022-09-03T05:51:15;99693.59;;;19.27;71.72
21803;BME280;18591;47.080;22.214;2022-09-03T05:53:18;99686.69;;;19.34;71.88
21803;BME280;18591;47.080;22.214;2022-09-03T05:55:20;99688.56;;;19.33;71.74
21803;BME280;18591;47.080;22.214;2022-09-03T05:57:23;99685.19;;;19.30;71.72
21803;BME280;18591;47.080;22.214;2022-09-03T05:59:25;99691.50;;;19.30;72.02
21803;BME280;18591;47.080;22.214;2022-09-03T06:01:32;99689.78;;;19.29;71.91
21803;BME280;18591;47.080;22.214;2022-09-03T06:03:35;99697.94;;;19.29;71.62
21803;BME280;18591;47.080;22.214;2022-09-03T06:05:38;99696.41;;;19.38;71.76
21803;BME280;18591;47.080;22.214;2022-09-03T06:07:40;99696.31;;;19.40;71.48
21803;BME280;18591;47.080;22.214;2022-09-03T06:09:43;99699.91;;;19.40;71.42
21803;BME280;18591;47.080;22.214;2022-09-03T06:11:46;99692.59;;;19.41;71.21
21803;BME280;18591;47.080;22.214;2022-09-03T06:13:51;99688.25;;;19.38;71.56
21803;BME280;18591;47.080;22.214;2022-09-03T06:15:57;99699.03;;;19.40;71.22
21803;BME280;18591;47.080;22.214;2022-09-03T06:17:59;99696.19;;;19.41;71.40
21803;BME280;18591;47.080;22.214;2022-09-03T06:20:01;99699.56;;;19.45;71.17
21803;BME280;18591;47.080;22.214;2022-09-03T06:22:04;99693.34;;;19.43;71.42
21803;BME280;18591;47.080;22.214;2022-09-03T06:24:06;99700.97;;;19.50;71.42
21803;BME280;18591;47.080;22.214;2022-09-03T06:26:12;99704.66;;;19.49;71.07
21803;BME280;18591;47.080;22.214;2022-09-03T06:28:15;99705.09;;;19.56;71.10
21803;BME280;18591;47.080;22.214;2022-09-03T06:30:23;99708.47;;;19.59;70.99
21803;BME280;18591;47.080;22.214;2022-09-03T06:32:27;99699.56;;;19.57;71.16
21803;BME280;18591;47.080;22.214;2022-09-03T06:34:30;99702.28;;;19.57;70.78
21803;BME280;18591;47.080;22.214;2022-09-03T06:36:32;99701.19;;;19.60;70.87
21803;BME280;18591;47.080;22.214;2022-09-03T06:38:36;99705.00;;;19.57;70.94
21803;BME280;18591;47.080;22.214;2022-09-03T06:40:38;99707.50;;;19.61;70.74
21803;BME280;18591;47.080;22.214;2022-09-03T06:42:43;99701.81;;;19.64;70.68
21803;BME280;18591;47.080;22.214;2022-09-03T06:44:47;99705.22;;;19.67;70.96
21803;BME280;18591;47.080;22.214;2022-09-03T06:46:52;99706.06;;;19.68;70.76
21803;BME280;18591;47.080;22.214;2022-09-03T06:48:57;99714.16;;;19.69;70.49
21803;BME280;18591;47.080;22.214;2022-09-03T06:51:08;99716.09;;;19.67;70.46
21803;BME280;18591;47.080;22.214;2022-09-03T06:53:11;99722.00;;;19.74;70.36
21803;BME280;18591;47.080;22.214;2022-09-03T06:55:13;99722.63;;;19.77;70.06
21803;BME280;18591;47.080;22.214;2022-09-03T06:57:16;99730.81;;;19.77;70.38
21803;BME280;18591;47.080;22.214;2022-09-03T06:59:18;99734.19;;;19.81;70.08
21803;BME280;18591;47.080;22.214;2022-09-03T07:01:25;99728.94;;;19.78;70.11
21803;BME280;18591;47.080;22.214;2022-09-03T07:03:29;99733.97;;;19.84;70.24
21803;BME280;18591;47.080;22.214;2022-09-03T07:05:31;99729.63;;;19.82;70.02
21803;BME280;18591;47.080;22.214;2022-09-03T07:07:34;99731.25;;;19.84;70.15
21803;BME280;18591;47.080;22.214;2022-09-03T07:09:41;99725.66;;;19.86;70.24
21803;BME280;18591;47.080;22.214;2022-09-03T07:11:49;99728.28;;;19.87;70.18
21803;BME280;18591;47.080;22.214;2022-09-03T07:13:52;99737.09;;;19.91;69.99
21803;BME280;18591;47.080;22.214;2022-09-03T07:16:03;99740.81;;;19.90;70.14
21803;BME280;18591;47.080;22.214;2022-09-03T07:18:06;99737.75;;;19.94;69.94
21803;BME280;18591;47.080;22.214;2022-09-03T07:20:08;99743.97;;;19.96;69.66
21803;BME280;18591;47.080;22.214;2022-09-03T07:22:11;99738.53;;;19.96;69.77
21803;BME280;18591;47.080;22.214;2022-09-03T07:24:13;99734.56;;;20.00;69.49
21803;BME280;18591;47.080;22.214;2022-09-03T07:26:21;99741.25;;;19.96;69.62
21803;BME280;18591;47.080;22.214;2022-09-03T07:28:25;99733.59;;;20.01;69.63
21803;BME280;18591;47.080;22.214;2022-09-03T07:30:27;99739.44;;;20.08;69.32
21803;BME280;18591;47.080;22.214;2022-09-03T07:32:30;99740.22;;;20.10;69.26
21803;BME280;18591;47.080;22.214;2022-09-03T07:34:34;99745.09;;;20.18;68.88
21803;BME280;18591;47.080;22.214;2022-09-03T07:36:46;99753.22;;;20.07;68.87
21803;BME280;18591;47.080;22.214;2022-09-03T07:38:50;99744.88;;;20.21;69.00
21803;BME280;18591;47.080;22.214;2022-09-03T07:40:58;99762.75;;;20.25;68.53
21803;BME280;18591;47.080;22.214;2022-09-03T07:43:01;99766.34;;;20.26;68.66
21803;BME280;18591;47.080;22.214;2022-09-03T07:45:07;99761.66;;;20.28;68.95
21803;BME280;18591;47.080;22.214;2022-09-03T07:47:13;99764.03;;;20.32;68.63
21803;BME280;18591;47.080;22.214;2022-09-03T07:49:22;99763.03;;;20.33;68.60
21803;BME280;18591;47.080;22.214;2022-09-03T07:51:26;99763.47;;;20.40;68.57
21803;BME280;18591;47.080;22.214;2022-09-03T07:53:29;99766.81;;;20.43;68.11
21803;BME280;18591;47.080;22.214;2022-09-03T07:55:31;99772.19;;;20.45;68.16
21803;BME280;18591;47.080;22.214;2022-09-03T07:57:34;99775.78;;;20.45;68.16
21803;BME280;18591;47.080;22.214;2022-09-03T07:59:37;99774.78;;;20.47;68.50
21803;BME280;18591;47.080;22.214;2022-09-03T08:01:40;99770.94;;;20.49;68.63
21803;BME280;18591;47.080;22.214;2022-09-03T08:03:44;99772.56;;;20.52;68.61
21803;BME280;18591;47.080;22.214;2022-09-03T08:05:47;99767.00;;;20.53;68.75
21803;BME280;18591;47.080;22.214;2022-09-03T08:07:49;99772.38;;;20.55;68.48
21803;BME280;18591;47.080;22.214;2022-09-03T08:09:52;99774.97;;;20.56;68.46
21803;BME280;18591;47.080;22.214;2022-09-03T08:11:54;99772.03;;;20.59;68.34
21803;BME280;18591;47.080;22.214;2022-09-03T08:13:59;99769.94;;;20.63;68.48
21803;BME280;18591;47.080;22.214;2022-09-03T08:16:03;99764.50;;;20.63;68.49
21803;BME280;18591;47.080;22.214;2022-09-03T08:18:06;99774.31;;;20.65;68.66
21803;BME280;18591;47.080;22.214;2022-09-03T08:20:09;99776.66;;;20.70;68.08
21803;BME280;18591;47.080;22.214;2022-09-03T08:22:11;99780.91;;;20.74;68.17
21803;BME280;18591;47.080;22.214;2022-09-03T08:24:15;99785.00;;;20.80;68.27
21803;BME280;18591;47.080;22.214;2022-09-03T08:26:19;99787.63;;;20.81;68.11
21803;BME280;18591;47.080;22.214;2022-09-03T08:28:22;99779.22;;;20.84;67.56
21803;BME280;18591;47.080;22.214;2022-09-03T08:30:26;99774.00;;;20.81;67.57
21803;BME280;18591;47.080;22.214;2022-09-03T08:32:29;99774.38;;;20.88;67.85
21803;BME280;18591;47.080;22.214;2022-09-03T08:34:31;99777.09;;;20.88;67.57
21803;BME280;18591;47.080;22.214;2022-09-03T08:36:35;99775.38;;;20.87;67.98
21803;BME280;18591;47.080;22.214;2022-09-03T08:38:38;99777.75;;;20.92;67.96
21803;BME280;18591;47.080;22.214;2022-09-03T08:40:41;99773.06;;;20.94;67.68
21803;BME280;18591;47.080;22.214;2022-09-03T08:45:09;99774.66;;;20.96;67.89
21803;BME280;18591;47.080;22.214;2022-09-03T08:49:34;99776.00;;;20.91;67.13
21803;BME280;18591;47.080;22.214;2022-09-03T08:51:41;99783.06;;;20.93;67.33
21803;BME280;18591;47.080;22.214;2022-09-03T08:53:48;99784.66;;;20.84;67.67
21803;BME280;18591;47.080;22.214;2022-09-03T08:56:11;99796.69;;;20.82;67.62
21803;BME280;18591;47.080;22.214;2022-09-03T08:58:20;99784.25;;;20.78;67.50
21803;BME280;18591;47.080;22.214;2022-09-03T09:00:23;99789.38;;;20.82;67.66
21803;BME280;18591;47.080;22.214;2022-09-03T09:02:39;99788.84;;;20.77;67.51
21803;BME280;18591;47.080;22.214;2022-09-03T09:05:08;99788.84;;;20.77;66.97
21803;BME280;18591;47.080;22.214;2022-09-03T09:07:40;99800.25;;;20.71;66.80
21803;BME280;18591;47.080;22.214;2022-09-03T09:14:27;99791.94;;;20.73;66.73
21803;BME280;18591;47.080;22.214;2022-09-03T09:21:22;99801.59;;;20.65;66.56
21803;BME280;18591;47.080;22.214;2022-09-03T09:23:39;99800.25;;;20.71;66.41
21803;BME280;18591;47.080;22.214;2022-09-03T09:25:49;99793.44;;;20.77;66.50
21803;BME280;18591;47.080;22.214;2022-09-03T09:27:59;99795.31;;;20.76;66.00
21803;BME280;18591;47.080;22.214;2022-09-03T09:30:04;99794.06;;;20.80;66.25
21803;BME280;18591;47.080;22.214;2022-09-03T09:32:11;99802.16;;;20.82;65.64
21803;BME280;18591;47.080;22.214;2022-09-03T09:34:15;99802.69;;;20.87;65.42
21803;BME280;18591;47.080;22.214;2022-09-03T09:36:17;99803.31;;;20.91;65.63
21803;BME280;18591;47.080;22.214;2022-09-03T09:38:34;99799.84;;;20.88;65.15
21803;BME280;18591;47.080;22.214;2022-09-03T09:40:44;99800.56;;;20.91;65.57
21803;BME280;18591;47.080;22.214;2022-09-03T09:42:46;99800.72;;;21.00;65.52
21803;BME280;18591;47.080;22.214;2022-09-03T09:44:49;99801.34;;;21.04;65.51
21803;BME280;18591;47.080;22.214;2022-09-03T09:47:01;99798.88;;;21.01;65.41
21803;BME280;18591;47.080;22.214;2022-09-03T09:49:59;99803.75;;;21.08;64.79
21803;BME280;18591;47.080;22.214;2022-09-03T09:52:11;99812.94;;;21.07;64.66
21803;BME280;18591;47.080;22.214;2022-09-03T09:54:16;99808.84;;;21.13;65.01
21803;BME280;18591;47.080;22.214;2022-09-03T09:56:25;99805.88;;;21.16;65.16
21803;BME280;18591;47.080;22.214;2022-09-03T09:58:29;99816.34;;;21.22;65.31
21803;BME280;18591;47.080;22.214;2022-09-03T10:00:34;99816.19;;;21.24;65.38
21803;BME280;18591;47.080;22.214;2022-09-03T10:02:44;99805.94;;;21.27;65.22
21803;BME280;18591;47.080;22.214;2022-09-03T10:04:48;99812.75;;;21.33;65.49
21803;BME280;18591;47.080;22.214;2022-09-03T10:07:14;99807.91;;;21.37;64.52
21803;BME280;18591;47.080;22.214;2022-09-03T10:09:19;99803.84;;;21.42;64.53
21803;BME280;18591;47.080;22.214;2022-09-03T10:11:33;99795.28;;;21.47;64.32
21803;BME280;18591;47.080;22.214;2022-09-03T10:13:42;99801.25;;;21.52;64.60
21803;BME280;18591;47.080;22.214;2022-09-03T10:18:23;99792.81;;;21.55;63.15
21803;BME280;18591;47.080;22.214;2022-09-03T10:20:45;99798.19;;;21.57;63.42
21803;BME280;18591;47.080;22.214;2022-09-03T10:22:54;99796.94;;;21.61;63.69
21803;BME280;18591;47.080;22.214;2022-09-03T10:24:59;99791.84;;;21.67;63.80
21803;BME280;18591;47.080;22.214;2022-09-03T10:27:06;99792.50;;;21.71;62.94
21803;BME280;18591;47.080;22.214;2022-09-03T10:29:15;99795.31;;;21.69;62.61
21803;BME280;18591;47.080;22.214;2022-09-03T10:33:53;99801.56;;;21.71;63.05
21803;BME280;18591;47.080;22.214;2022-09-03T10:36:22;99797.69;;;21.74;62.41
21803;BME280;18591;47.080;22.214;2022-09-03T10:38:32;99800.19;;;21.77;62.35
21803;BME280;18591;47.080;22.214;2022-09-03T10:48:07;99782.13;;;22.08;63.42
21803;BME280;18591;47.080;22.214;2022-09-03T10:50:26;99791.63;;;22.04;62.55
21803;BME280;18591;47.080;22.214;2022-09-03T10:55:18;99788.25;;;22.12;61.94
21803;BME280;18591;47.080;22.214;2022-09-03T10:57:34;99787.66;;;22.20;62.11
21803;BME280;18591;47.080;22.214;2022-09-03T11:06:22;99805.75;;;22.32;61.79
21803;BME280;18591;47.080;22.214;2022-09-03T11:08:30;99800.56;;;22.29;60.66
21803;BME280;18591;47.080;22.214;2022-09-03T11:10:40;99802.06;;;22.33;61.02
21803;BME280;18591;47.080;22.214;2022-09-03T11:13:34;99804.38;;;22.37;61.78
21803;BME280;18591;47.080;22.214;2022-09-03T11:15:22;99801.91;;;22.46;61.89
21803;BME280;18591;47.080;22.214;2022-09-03T11:17:35;99801.63;;;22.49;62.42
21803;BME280;18591;47.080;22.214;2022-09-03T11:19:47;99805.84;;;22.53;61.50
21803;BME280;18591;47.080;22.214;2022-09-03T11:21:52;99798.09;;;22.58;61.50
21803;BME280;18591;47.080;22.214;2022-09-03T11:24:10;99808.09;;;22.59;60.48
21803;BME280;18591;47.080;22.214;2022-09-03T11:26:17;99797.72;;;22.74;61.38
21803;BME280;18591;47.080;22.214;2022-09-03T11:28:26;99808.13;;;22.80;61.46
21803;BME280;18591;47.080;22.214;2022-09-03T11:30:58;99804.53;;;22.79;61.40
21803;BME280;18591;47.080;22.214;2022-09-03T11:33:09;99802.59;;;22.91;60.85
21803;BME280;18591;47.080;22.214;2022-09-03T11:38:04;99803.50;;;22.92;59.99
21803;BME280;18591;47.080;22.214;2022-09-03T11:40:15;99814.56;;;22.90;57.62
21803;BME280;18591;47.080;22.214;2022-09-03T11:42:34;99799.63;;;22.94;58.28
21803;BME280;18591;47.080;22.214;2022-09-03T11:44:40;99799.72;;;23.04;59.00
21803;BME280;18591;47.080;22.214;2022-09-03T11:46:57;99796.84;;;23.06;58.73
21803;BME280;18591;47.080;22.214;2022-09-03T11:49:11;99792.22;;;23.06;58.36
21803;BME280;18591;47.080;22.214;2022-09-03T11:51:31;99789.84;;;23.13;58.88
21803;BME280;18591;47.080;22.214;2022-09-03T11:53:35;99785.81;;;23.17;58.79
21803;BME280;18591;47.080;22.214;2022-09-03T11:55:53;99786.09;;;23.14;56.14
21803;BME280;18591;47.080;22.214;2022-09-03T11:57:56;99776.34;;;23.21;58.36
21803;BME280;18591;47.080;22.214;2022-09-03T12:00:15;99783.88;;;23.29;58.35
21803;BME280;18591;47.080;22.214;2022-09-03T12:02:29;99790.56;;;23.36;57.61
21803;BME280;18591;47.080;22.214;2022-09-03T12:04:44;99789.91;;;23.43;57.58
21803;BME280;18591;47.080;22.214;2022-09-03T12:06:57;99787.75;;;23.47;58.29
21803;BME280;18591;47.080;22.214;2022-09-03T12:18:53;99794.63;;;23.83;58.32
21803;BME280;18591;47.080;22.214;2022-09-03T12:21:02;99796.03;;;23.78;57.73
21803;BME280;18591;47.080;22.214;2022-09-03T12:23:04;99797.34;;;23.83;58.21
21803;BME280;18591;47.080;22.214;2022-09-03T12:25:11;99806.91;;;23.89;58.97
21803;BME280;18591;47.080;22.214;2022-09-03T12:27:18;99799.81;;;23.86;57.48
21803;BME280;18591;47.080;22.214;2022-09-03T12:29:25;99796.38;;;23.94;57.67
21803;BME280;18591;47.080;22.214;2022-09-03T12:31:43;99804.63;;;23.94;57.18
21803;BME280;18591;47.080;22.214;2022-09-03T12:33:52;99800.03;;;24.04;57.58
21803;BME280;18591;47.080;22.214;2022-09-03T12:35:59;99801.84;;;24.15;57.51
21803;BME280;18591;47.080;22.214;2022-09-03T12:38:05;99799.09;;;24.25;57.35
21803;BME280;18591;47.080;22.214;2022-09-03T12:40:21;99799.09;;;24.25;56.31
21803;BME280;18591;47.080;22.214;2022-09-03T12:42:26;99794.75;;;24.22;56.48
21803;BME280;18591;47.080;22.214;2022-09-03T12:46:32;99796.94;;;24.19;55.92
21803;BME280;18591;47.080;22.214;2022-09-03T12:48:37;99800.25;;;24.12;53.84
21803;BME280;18591;47.080;22.214;2022-09-03T12:50:46;99796.72;;;24.01;54.06